Time;durP1;ratioP1;P1;durP2;ratioP2;P2;SDS_P1;SDS_P2;PMS_P1;PMS_P2;Temp;Humidity;BMP_temperature;BMP_pressure;BME280_temperature;BME280_humidity;BME280_pressure;Samples;Min_cycle;Max_cycle;Signal;HPM_P1;HPM_P2
2022/02/24 00:00:08;;;;;;;0.60;0.60;;;;;;;4.50;75.23;97326.37;29395;356;63004;-63
2022/02/24 00:00:39;;;;;;;0.50;0.50;;;;;;;4.51;74.85;97327.97;29395;231;63009;-62
2022/02/24 00:01:12;;;;;;;0.60;0.60;;;;;;;4.51;75.14;97322.59;29395;213;63004;-59
2022/02/24 00:01:43;;;;;;;0.50;0.50;;;;;;;4.52;75.09;97331.47;29394;357;64013;-63
2022/02/24 00:02:14;;;;;;;0.60;0.60;;;;;;;4.52;75.06;97324.22;29395;210;63004;-63
2022/02/24 00:02:46;;;;;;;0.50;0.50;;;;;;;4.53;75.11;97328.53;29395;220;63009;-63
2022/02/24 00:03:17;;;;;;;0.50;0.50;;;;;;;4.53;75.16;97325.03;29394;207;64009;-64
2022/02/24 00:03:49;;;;;;;0.50;0.50;;;;;;;4.53;75.07;97320.47;29395;286;63009;-62
2022/02/24 00:04:22;;;;;;;0.57;0.57;;;;;;;4.53;74.77;97322.34;29395;264;63005;-63
2022/02/24 00:04:54;;;;;;;0.50;0.50;;;;;;;4.52;74.89;97329.59;29395;306;63009;-64
2022/02/24 00:05:26;;;;;;;0.60;0.60;;;;;;;4.52;75.18;97326.09;29395;225;63005;-63
2022/02/24 00:05:57;;;;;;;0.50;0.50;;;;;;;4.51;74.85;97322.59;29395;269;63009;-63
2022/02/24 00:06:28;;;;;;;0.50;0.50;;;;;;;4.53;74.71;97325.03;29395;310;63005;-59
2022/02/24 00:07:00;;;;;;;0.60;0.60;;;;;;;4.51;75.19;97317.22;29395;278;63009;-62
2022/02/24 00:07:31;;;;;;;0.60;0.60;;;;;;;4.51;74.84;97319.91;29395;208;63004;-64
2022/02/24 00:08:05;;;;;;;0.60;0.60;;;;;;;4.51;75.08;97325.28;29395;197;63009;-63
2022/02/24 00:08:36;;;;;;;0.60;0.60;;;;;;;4.51;75.41;97322.59;29394;290;64009;-61
2022/02/24 00:09:07;;;;;;;0.60;0.60;;;;;;;4.51;75.22;97319.91;29395;234;63013;-62
2022/02/24 00:09:39;;;;;;;0.60;0.60;;;;;;;4.54;75.00;97316.75;29395;219;63004;-62
2022/02/24 00:10:12;;;;;;;0.50;0.50;;;;;;;4.55;74.74;97328.31;29395;196;63009;-58
2022/02/24 00:10:43;;;;;;;0.60;0.60;;;;;;;4.57;74.71;97327.00;29395;243;63005;-64
2022/02/24 00:11:15;;;;;;;0.50;0.50;;;;;;;4.59;74.51;97319.50;29395;218;63009;-63
2022/02/24 00:11:46;;;;;;;0.57;0.57;;;;;;;4.59;74.79;97319.50;29395;242;63005;-61
2022/02/24 00:12:17;;;;;;;0.50;0.50;;;;;;;4.58;74.74;97315.19;29395;218;63027;-64
2022/02/24 00:12:49;;;;;;;0.50;0.50;;;;;;;4.57;75.00;97324.31;29395;242;63005;-62
2022/02/24 00:13:20;;;;;;;0.60;0.60;;;;;;;4.56;74.94;97314.62;29395;212;63009;-63
2022/02/24 00:13:51;;;;;;;0.50;0.50;;;;;;;4.55;75.21;97315.69;29394;198;64009;-61
2022/02/24 00:14:22;;;;;;;0.50;0.50;;;;;;;4.54;75.00;97311.37;29395;275;63014;-63
2022/02/24 00:14:56;;;;;;;0.50;0.50;;;;;;;4.55;74.79;97314.88;29395;204;63004;-60
2022/02/24 00:15:27;;;;;;;0.60;0.60;;;;;;;4.62;75.03;97310.97;29395;203;63009;-63
2022/02/24 00:15:58;;;;;;;0.50;0.50;;;;;;;4.67;74.60;97311.06;29394;260;64009;-63
2022/02/24 00:16:29;;;;;;;0.60;0.60;;;;;;;4.66;74.31;97314.78;29395;217;63009;-61
2022/02/24 00:17:01;;;;;;;0.60;0.60;;;;;;;4.63;74.64;97312.59;29395;222;63004;-63
2022/02/24 00:17:34;;;;;;;0.60;0.60;;;;;;;4.61;74.64;97306.66;29395;202;63008;-62
2022/02/24 00:18:05;;;;;;;0.50;0.50;;;;;;;4.60;74.98;97301.50;29395;209;63005;-62
2022/02/24 00:18:36;;;;;;;0.50;0.50;;;;;;;4.58;75.14;97301.75;29395;211;63009;-63
2022/02/24 00:19:08;;;;;;;0.60;0.60;;;;;;;4.60;74.95;97313.09;29394;237;64009;-57
2022/02/24 00:19:39;;;;;;;0.50;0.50;;;;;;;4.60;74.77;97309.56;29395;220;63009;-62
2022/02/24 00:20:12;;;;;;;0.50;0.50;;;;;;;4.60;74.57;97309.56;29395;211;63008;-57
2022/02/24 00:20:43;;;;;;;0.50;0.50;;;;;;;4.60;74.50;97310.41;29395;205;63009;-63
2022/02/24 00:21:15;;;;;;;0.57;0.57;;;;;;;4.60;74.62;97321.13;29395;202;63004;-59
2022/02/24 00:21:46;;;;;;;0.50;0.50;;;;;;;4.60;74.98;97310.41;29395;343;63009;-62
2022/02/24 00:22:17;;;;;;;0.50;0.50;;;;;;;4.58;74.83;97304.44;29395;216;63004;-57
2022/02/24 00:22:48;;;;;;;0.50;0.50;;;;;;;4.58;74.90;97309.81;29395;198;63009;-63
2022/02/24 00:23:19;;;;;;;0.50;0.50;;;;;;;4.58;74.97;97315.19;29395;218;63004;-63
2022/02/24 00:23:51;;;;;;;0.60;0.60;;;;;;;4.55;75.48;97318.37;29394;225;64013;-62
2022/02/24 00:24:22;;;;;;;0.50;0.50;;;;;;;4.57;74.83;97321.62;29395;207;63004;-62
2022/02/24 00:24:54;;;;;;;0.50;0.50;;;;;;;4.58;74.90;97309.81;29395;234;63008;-58
2022/02/24 00:25:25;;;;;;;0.50;0.50;;;;;;;4.60;74.96;97310.41;29395;213;63005;-62
2022/02/24 00:26:00;;;;;;;0.50;0.50;;;;;;;4.62;74.52;97313.66;29395;224;63009;-61
2022/02/24 00:26:34;;;;;;;0.50;0.50;;;;;;;4.63;74.71;97312.59;29395;216;63005;-63
2022/02/24 00:27:09;;;;;;;0.60;0.60;;;;;;;4.64;74.35;97300.78;29395;233;63009;-60
2022/02/24 00:27:40;;;;;;;0.55;0.55;;;;;;;4.65;74.51;97307.78;29395;221;63005;-62
2022/02/24 00:28:11;;;;;;;0.50;0.50;;;;;;;4.66;74.32;97305.91;29395;212;63009;-57
2022/02/24 00:28:43;;;;;;;0.60;0.60;;;;;;;4.66;74.42;97309.41;29395;205;63004;-59
2022/02/24 00:29:14;;;;;;;0.60;0.60;;;;;;;4.65;74.54;97302.41;29394;214;64013;-64
2022/02/24 00:29:46;;;;;;;0.50;0.50;;;;;;;4.64;74.82;97300.78;29395;218;63004;-62
2022/02/24 00:30:18;;;;;;;0.60;0.60;;;;;;;4.64;74.53;97305.34;29395;211;63009;-64
2022/02/24 00:30:51;;;;;;;0.60;0.60;;;;;;;4.62;74.35;97302.91;29395;237;63009;-62
2022/02/24 00:31:22;;;;;;;0.60;0.60;;;;;;;4.62;74.73;97308.28;29395;258;63008;-60
2022/02/24 00:31:53;;;;;;;0.50;0.50;;;;;;;4.61;74.89;97312.03;29395;266;63004;-63
2022/02/24 00:32:25;;;;;;;0.60;0.60;;;;;;;4.62;74.65;97302.09;29395;290;63009;-63
2022/02/24 00:32:56;;;;;;;0.50;0.50;;;;;;;4.62;74.64;97305.59;29395;237;63005;-64
2022/02/24 00:33:27;;;;;;;0.50;0.50;;;;;;;4.61;74.90;97301.28;29395;241;63009;-59
2022/02/24 00:34:02;;;;;;;0.50;0.50;;;;;;;4.62;74.79;97300.22;29395;204;63007;-63
2022/02/24 00:34:34;;;;;;;0.50;0.50;;;;;;;4.63;74.58;97304.53;29394;197;64013;-58
2022/02/24 00:35:06;;;;;;;0.50;0.50;;;;;;;4.64;74.80;97306.16;29395;216;63005;-58
2022/02/24 00:35:37;;;;;;;0.60;0.60;;;;;;;4.63;74.46;97304.53;29395;229;63009;-63
2022/02/24 00:36:11;;;;;;;0.50;0.50;;;;;;;4.67;74.53;97303.00;29395;215;63004;-63
2022/02/24 00:36:43;;;;;;;0.50;0.50;;;;;;;4.69;74.72;97303.56;29395;235;63009;-60
2022/02/24 00:37:15;;;;;;;0.50;0.50;;;;;;;4.73;74.38;97298.50;29395;218;63004;-58
2022/02/24 00:37:50;;;;;;;0.50;0.50;;;;;;;4.76;74.24;97305.28;29394;209;64013;-62
2022/02/24 00:38:21;;;;;;;0.60;0.60;;;;;;;4.74;74.55;97304.69;29395;202;63004;-62
2022/02/24 00:38:52;;;;;;;0.50;0.50;;;;;;;4.70;74.56;97305.19;29395;196;63008;-62
2022/02/24 00:39:23;;;;;;;0.60;0.60;;;;;;;4.71;74.56;97296.06;29395;202;63000;-59
2022/02/24 00:39:55;;;;;;;0.50;0.50;;;;;;;4.71;74.75;97300.63;29395;229;63009;-58
2022/02/24 00:40:26;;;;;;;0.50;0.50;;;;;;;4.74;74.45;97293.94;29395;239;63005;-62
2022/02/24 00:40:58;;;;;;;0.50;0.50;;;;;;;4.74;74.25;97294.75;29395;229;63009;-61
2022/02/24 00:41:29;;;;;;;0.50;0.50;;;;;;;4.75;74.24;97296.38;29395;277;63010;-63
2022/02/24 00:42:00;;;;;;;0.50;0.50;;;;;;;4.75;74.36;97295.56;29395;234;63009;-61
2022/02/24 00:42:33;;;;;;;0.50;0.50;;;;;;;4.76;74.35;97295.34;29394;368;64009;-58
2022/02/24 00:43:04;;;;;;;0.60;0.60;;;;;;;4.77;74.01;97298.84;29394;254;64013;-63
2022/02/24 00:43:35;;;;;;;0.50;0.50;;;;;;;4.78;74.39;97295.09;29395;240;63005;-59
2022/02/24 00:44:07;;;;;;;0.50;0.50;;;;;;;4.78;74.25;97292.41;29394;282;64013;-62
2022/02/24 00:44:41;;;;;;;0.50;0.50;;;;;;;4.80;74.20;97293.78;29395;276;63004;-59
2022/02/24 00:45:12;;;;;;;0.50;0.50;;;;;;;4.81;73.93;97291.91;29395;203;63009;-63
2022/02/24 00:45:43;;;;;;;0.60;0.60;;;;;;;4.80;74.28;97292.97;29395;236;63004;-58
2022/02/24 00:46:15;;;;;;;0.60;0.60;;;;;;;4.79;74.09;97285.97;29395;210;63008;-63
2022/02/24 00:46:46;;;;;;;0.60;0.60;;;;;;;4.80;74.07;97292.97;29395;218;63004;-62
2022/02/24 00:47:17;;;;;;;0.50;0.50;;;;;;;4.81;74.05;97289.22;29395;212;63009;-64
2022/02/24 00:47:49;;;;;;;0.50;0.50;;;;;;;4.82;74.47;97280.09;29395;239;63005;-58
2022/02/24 00:48:20;;;;;;;0.50;0.50;;;;;;;4.82;74.19;97288.16;29395;219;63009;-63
2022/02/24 00:48:54;;;;;;;0.50;0.50;;;;;;;4.82;74.10;97285.47;29395;220;63005;-63
2022/02/24 00:49:25;;;;;;;0.50;0.50;;;;;;;4.81;74.04;97281.97;29394;275;64013;-63
2022/02/24 00:49:56;;;;;;;0.50;0.50;;;;;;;4.85;74.22;97284.97;29395;218;63005;-62
2022/02/24 00:50:28;;;;;;;0.50;0.50;;;;;;;4.86;73.66;97282.03;29395;204;63009;-58
2022/02/24 00:50:59;;;;;;;0.50;0.50;;;;;;;4.91;73.65;97283.97;29395;202;63005;-59
2022/02/24 00:51:30;;;;;;;0.55;0.55;;;;;;;4.94;73.82;97280.78;29395;240;63009;-60
2022/02/24 00:52:03;;;;;;;0.50;0.50;;;;;;;4.94;73.85;97283.47;29395;229;63004;-57
2022/02/24 00:52:38;;;;;;;0.50;0.50;;;;;;;4.94;73.42;97283.47;29395;235;63009;-58
2022/02/24 00:53:09;;;;;;;0.50;0.50;;;;;;;4.95;73.65;97285.09;29394;223;64009;-58
2022/02/24 00:53:41;;;;;;;0.50;0.50;;;;;;;4.98;73.10;97279.25;29395;239;63009;-62
2022/02/24 00:54:14;;;;;;;0.50;0.50;;;;;;;4.98;73.20;97279.25;29395;224;63004;-58
2022/02/24 00:54:48;;;;;;;0.50;0.50;;;;;;;4.99;73.10;97281.69;29395;248;63009;-60
2022/02/24 00:55:19;;;;;;;0.50;0.50;;;;;;;5.03;73.17;97282.81;29395;211;63005;-59
2022/02/24 00:55:51;;;;;;;0.50;0.50;;;;;;;5.06;73.05;97276.12;29395;204;63009;-62
2022/02/24 00:56:22;;;;;;;0.50;0.50;;;;;;;5.09;72.47;97280.19;29395;232;63005;-62
2022/02/24 00:56:53;;;;;;;0.60;0.60;;;;;;;5.11;72.77;97276.19;29395;273;63009;-60
2022/02/24 00:57:26;;;;;;;0.50;0.50;;;;;;;5.11;72.63;97276.19;29395;206;63005;-58
2022/02/24 00:57:58;;;;;;;0.50;0.50;;;;;;;5.12;72.50;97277.84;29395;233;63009;-60
2022/02/24 00:58:29;;;;;;;0.50;0.50;;;;;;;5.14;72.51;97277.59;29394;284;64009;-62
2022/02/24 00:59:00;;;;;;;0.50;0.50;;;;;;;5.13;72.52;97282.16;29394;205;64013;-61
2022/02/24 00:59:32;;;;;;;0.50;0.50;;;;;;;5.12;72.38;97280.53;29395;228;63004;-62
2022/02/24 01:00:06;;;;;;;0.50;0.50;;;;;;;5.09;72.59;97275.62;29395;198;63009;-60
2022/02/24 01:00:37;;;;;;;0.50;0.50;;;;;;;5.06;72.94;97276.12;29395;201;63004;-60
2022/02/24 01:01:09;;;;;;;0.50;0.50;;;;;;;5.04;72.84;97278.25;29394;214;64013;-61
2022/02/24 01:01:41;;;;;;;0.50;0.50;;;;;;;5.11;73.05;97273.50;29395;205;63004;-58
2022/02/24 01:02:12;;;;;;;0.50;0.50;;;;;;;5.11;73.18;97272.69;29395;222;63009;-61
2022/02/24 01:02:44;;;;;;;0.60;0.60;;;;;;;5.09;73.06;97275.62;29395;236;63005;-62
2022/02/24 01:03:17;;;;;;;0.50;0.50;;;;;;;5.06;73.24;97276.12;29395;300;63009;-61
2022/02/24 01:03:48;;;;;;;0.50;0.50;;;;;;;5.06;73.18;97270.75;29395;255;63000;-62
2022/02/24 01:04:20;;;;;;;0.50;0.50;;;;;;;5.04;72.98;97273.69;29395;197;63014;-61
2022/02/24 01:04:51;;;;;;;0.50;0.50;;;;;;;5.03;73.30;97277.44;29395;272;63005;-62
2022/02/24 01:05:22;;;;;;;0.50;0.50;;;;;;;5.02;73.45;97277.69;29394;235;64013;-57
2022/02/24 01:05:54;;;;;;;0.50;0.50;;;;;;;5.02;73.36;97265.06;29394;206;64009;-60
2022/02/24 01:06:25;;;;;;;0.50;0.50;;;;;;;5.04;73.09;97272.87;29395;274;63009;-59
2022/02/24 01:06:56;;;;;;;0.50;0.50;;;;;;;5.04;73.07;97272.87;29394;212;64009;-59
2022/02/24 01:07:28;;;;;;;0.50;0.50;;;;;;;5.06;73.00;97270.75;29395;202;63009;-57
2022/02/24 01:07:59;;;;;;;0.50;0.50;;;;;;;5.07;73.02;97267.00;29395;273;63004;-60
2022/02/24 01:08:30;;;;;;;0.50;0.50;;;;;;;5.09;72.69;97269.44;29395;212;63008;-61
2022/02/24 01:09:01;;;;;;;0.50;0.50;;;;;;;5.06;72.95;97260.00;29395;197;63004;-62
2022/02/24 01:09:34;;;;;;;0.50;0.50;;;;;;;5.04;72.88;97262.94;29395;197;63008;-61
2022/02/24 01:10:09;;;;;;;0.95;0.95;;;;;;;5.05;73.10;97263.75;29394;238;64009;-59
2022/02/24 01:10:41;;;;;;;0.60;0.60;;;;;;;5.07;72.98;97272.37;29395;243;63009;-60
2022/02/24 01:11:12;;;;;;;0.50;0.50;;;;;;;5.05;73.17;97264.56;29395;234;63005;-61
2022/02/24 01:11:43;;;;;;;0.50;0.50;;;;;;;5.06;72.83;97262.69;29395;278;63009;-62
2022/02/24 01:12:15;;;;;;;0.50;0.50;;;;;;;5.06;72.86;97270.75;29395;338;63005;-57
2022/02/24 01:12:48;;;;;;;0.60;0.60;;;;;;;5.05;72.98;97264.56;29394;274;64013;-58
2022/02/24 01:13:19;;;;;;;0.50;0.50;;;;;;;5.04;73.08;97262.13;29395;253;63004;-62
2022/02/24 01:13:51;;;;;;;0.50;0.50;;;;;;;5.04;73.02;97256.72;29395;249;63009;-61
2022/02/24 01:14:22;;;;;;;0.50;0.50;;;;;;;5.05;73.14;97258.38;29395;228;63004;-60
2022/02/24 01:14:53;;;;;;;0.50;0.50;;;;;;;5.03;73.02;97255.91;29395;228;63009;-57
2022/02/24 01:15:24;;;;;;;0.50;0.50;;;;;;;5.03;73.35;97257.78;29395;223;63004;-59
2022/02/24 01:15:56;;;;;;;0.57;0.57;;;;;;;5.03;72.93;97260.47;29394;230;64013;-59
2022/02/24 01:16:27;;;;;;;0.50;0.50;;;;;;;5.02;73.33;97264.25;29395;225;63005;-59
2022/02/24 01:16:58;;;;;;;0.50;0.50;;;;;;;5.01;73.40;97254.53;29394;224;64014;-61
2022/02/24 01:17:30;;;;;;;0.50;0.50;;;;;;;5.00;73.58;97261.78;29395;233;63005;-63
2022/02/24 01:18:02;;;;;;;0.50;0.50;;;;;;;5.00;73.56;97256.41;29395;218;63009;-60
2022/02/24 01:18:34;;;;;;;0.50;0.50;;;;;;;5.02;73.50;97258.84;29395;244;63005;-62
2022/02/24 01:19:05;;;;;;;0.50;0.50;;;;;;;5.01;73.17;97252.66;29395;234;63009;-62
2022/02/24 01:19:36;;;;;;;0.50;0.50;;;;;;;5.01;73.44;97258.03;29395;230;63005;-59
2022/02/24 01:20:10;;;;;;;0.50;0.50;;;;;;;5.00;73.31;97256.41;29395;239;63009;-62
2022/02/24 01:20:41;;;;;;;0.50;0.50;;;;;;;4.98;73.94;97257.72;29394;219;64009;-62
2022/02/24 01:21:12;;;;;;;0.50;0.50;;;;;;;5.01;73.53;97262.59;29395;196;63009;-60
2022/02/24 01:21:46;;;;;;;0.50;0.50;;;;;;;5.01;73.50;97257.22;29395;206;63004;-63
2022/02/24 01:22:18;;;;;;;0.50;0.50;;;;;;;4.99;73.39;97262.84;29395;206;63009;-57
2022/02/24 01:22:50;;;;;;;0.50;0.50;;;;;;;4.98;73.76;97257.72;29395;204;63004;-62
2022/02/24 01:23:21;;;;;;;0.50;0.50;;;;;;;4.98;73.78;97263.09;29395;207;63008;-62
2022/02/24 01:23:54;;;;;;;0.60;0.60;;;;;;;4.94;73.95;97268.16;29395;217;63004;-63
2022/02/24 01:24:25;;;;;;;0.50;0.50;;;;;;;4.92;73.92;97270.28;29395;220;63009;-63
2022/02/24 01:25:00;;;;;;;0.50;0.50;;;;;;;4.94;74.12;97270.03;29394;290;64009;-63
2022/02/24 01:25:32;;;;;;;0.50;0.50;;;;;;;4.98;73.93;97263.09;29395;309;63009;-63
2022/02/24 01:26:04;;;;;;;0.50;0.50;;;;;;;4.96;73.84;97260.66;29395;220;63005;-58
2022/02/24 01:26:36;;;;;;;0.50;0.50;;;;;;;4.96;73.65;97274.09;29395;203;63009;-63
2022/02/24 01:27:09;;;;;;;0.60;0.60;;;;;;;4.94;73.98;97267.34;29394;219;64009;-63
2022/02/24 01:27:42;;;;;;;0.50;0.50;;;;;;;4.94;73.94;97272.72;29395;222;63009;-62
2022/02/24 01:28:13;;;;;;;0.50;0.50;;;;;;;4.91;74.10;97267.84;29395;228;63004;-59
2022/02/24 01:28:44;;;;;;;0.50;0.50;;;;;;;4.89;74.21;97273.47;29395;236;63009;-63
2022/02/24 01:29:15;;;;;;;0.60;0.60;;;;;;;4.87;74.60;97272.06;29395;224;63018;-58
2022/02/24 01:29:46;;;;;;;0.50;0.50;;;;;;;4.85;74.57;97274.22;29395;238;63009;-62
2022/02/24 01:30:19;;;;;;;0.50;0.50;;;;;;;4.83;74.93;97270.97;29395;206;63004;-62
2022/02/24 01:30:51;;;;;;;2.15;2.15;;;;;;;4.80;74.93;97266.91;29395;290;63008;-63
2022/02/24 01:31:25;;;;;;;0.50;0.50;;;;;;;4.79;75.32;97269.84;29394;239;64008;-61
2022/02/24 01:31:56;;;;;;;0.50;0.50;;;;;;;4.76;75.75;97264.94;29395;212;63009;-62
2022/02/24 01:32:31;;;;;;;0.50;0.50;;;;;;;4.73;75.79;97266.25;29395;290;63005;-63
2022/02/24 01:33:02;;;;;;;0.50;0.50;;;;;;;4.70;75.55;97262.19;29395;197;63009;-58
2022/02/24 01:33:34;;;;;;;0.50;0.50;;;;;;;4.70;75.90;97264.87;29395;233;63005;-64
2022/02/24 01:34:05;;;;;;;0.50;0.50;;;;;;;4.69;75.71;97265.94;29395;216;63009;-65
2022/02/24 01:34:37;;;;;;;0.50;0.50;;;;;;;4.68;75.96;97266.97;29395;227;63005;-63
2022/02/24 01:35:08;;;;;;;0.50;0.50;;;;;;;4.69;75.69;97268.62;29395;215;63009;-61
2022/02/24 01:35:40;;;;;;;0.50;0.50;;;;;;;4.68;75.63;97275.03;29395;227;63005;-58
2022/02/24 01:36:11;;;;;;;0.60;0.60;;;;;;;4.68;76.20;97264.28;29394;202;64013;-62
2022/02/24 01:36:42;;;;;;;0.50;0.50;;;;;;;4.67;75.90;97269.91;29395;235;63004;-63
2022/02/24 01:37:13;;;;;;;0.60;0.60;;;;;;;4.66;75.69;97261.03;29395;232;63009;-63
2022/02/24 01:37:48;;;;;;;0.50;0.50;;;;;;;4.66;76.05;97261.03;29395;225;63004;-58
2022/02/24 01:38:19;;;;;;;0.57;0.57;;;;;;;4.66;75.89;97254.84;29395;246;63004;-62
2022/02/24 01:38:50;;;;;;;0.50;0.50;;;;;;;4.65;75.86;97248.66;29395;214;63004;-62
2022/02/24 01:39:21;;;;;;;0.50;0.50;;;;;;;4.65;75.64;97254.03;29395;239;63009;-61
2022/02/24 01:39:52;;;;;;;0.60;0.60;;;;;;;4.64;76.07;97256.97;29395;216;63005;-63
2022/02/24 01:40:24;;;;;;;0.50;0.50;;;;;;;4.62;75.81;97248.34;29395;235;63009;-63
2022/02/24 01:40:55;;;;;;;0.60;0.60;;;;;;;4.61;76.36;97260.97;29394;218;64009;-63
2022/02/24 01:41:26;;;;;;;0.68;0.68;;;;;;;4.62;76.15;97259.91;29395;197;63009;-62
2022/02/24 01:41:59;;;;;;;0.60;0.60;;;;;;;4.61;76.20;97252.06;29395;216;63005;-57
2022/02/24 01:42:30;;;;;;;0.50;0.50;;;;;;;4.60;76.04;97248.56;29394;234;64013;-62
2022/02/24 01:43:02;;;;;;;0.60;0.60;;;;;;;4.59;76.46;97252.31;29395;224;63005;-58
2022/02/24 01:43:34;;;;;;;0.50;0.50;;;;;;;4.60;76.17;97256.63;29395;291;63009;-62
2022/02/24 01:44:13;;;;;;;0.50;0.50;;;;;;;4.60;76.32;97258.50;29395;231;63004;-61
2022/02/24 01:44:46;;;;;;;0.60;0.60;;;;;;;4.59;76.60;97249.63;29395;213;63009;-58
2022/02/24 01:45:18;;;;;;;0.50;0.50;;;;;;;4.58;76.38;97253.38;29395;199;63004;-62
2022/02/24 01:45:50;;;;;;;0.60;0.60;;;;;;;4.58;76.67;97247.19;29395;221;63008;-61
2022/02/24 01:46:21;;;;;;;0.50;0.50;;;;;;;4.56;76.68;97244.75;29395;196;63004;-62
2022/02/24 01:46:55;;;;;;;0.50;0.50;;;;;;;4.55;76.63;97248.50;29395;238;63009;-63
2022/02/24 01:47:27;;;;;;;0.60;0.60;;;;;;;4.57;76.73;97251.75;29395;194;63005;-58
2022/02/24 01:47:58;;;;;;;0.50;0.50;;;;;;;4.60;76.37;97251.25;29394;211;64014;-63
2022/02/24 01:48:29;;;;;;;0.52;0.52;;;;;;;4.59;76.57;97246.94;29395;202;63005;-58
2022/02/24 01:49:03;;;;;;;0.60;0.60;;;;;;;4.58;76.60;97242.63;29394;197;64013;-63
2022/02/24 01:49:35;;;;;;;0.50;0.50;;;;;;;4.59;76.44;97244.25;29395;203;63005;-58
2022/02/24 01:50:08;;;;;;;0.60;0.60;;;;;;;4.57;76.43;97241.00;29395;227;63009;-62
2022/02/24 01:50:40;;;;;;;0.60;0.60;;;;;;;4.56;76.73;97239.38;29394;224;64009;-63
2022/02/24 01:51:11;;;;;;;0.50;0.50;;;;;;;4.56;76.72;97239.38;29395;221;63009;-59
2022/02/24 01:51:43;;;;;;;0.50;0.50;;;;;;;4.55;76.26;97237.75;29395;210;63004;-59
2022/02/24 01:52:14;;;;;;;0.60;0.60;;;;;;;4.56;76.34;97238.56;29395;240;63009;-62
2022/02/24 01:52:45;;;;;;;0.60;0.60;;;;;;;4.54;76.47;97236.13;29394;202;64009;-58
2022/02/24 01:53:17;;;;;;;0.50;0.50;;;;;;;4.54;76.39;97236.13;29395;210;63009;-62
2022/02/24 01:53:48;;;;;;;0.60;0.60;;;;;;;4.56;76.73;97239.38;29394;224;64008;-60
2022/02/24 01:54:20;;;;;;;0.52;0.52;;;;;;;4.60;76.25;97237.81;29395;207;63009;-58
2022/02/24 01:54:51;;;;;;;0.60;0.60;;;;;;;4.64;76.19;97233.59;29395;225;63005;-58
2022/02/24 01:55:23;;;;;;;0.57;0.57;;;;;;;4.66;76.19;97234.16;29395;197;63009;-62
2022/02/24 01:55:54;;;;;;;0.60;0.60;;;;;;;4.64;76.19;97236.28;29395;236;63005;-61
2022/02/24 01:56:26;;;;;;;0.60;0.60;;;;;;;4.65;76.03;97232.53;29395;237;63009;-59
2022/02/24 01:57:01;;;;;;;0.60;0.60;;;;;;;4.66;76.04;97233.34;29395;240;63005;-63
2022/02/24 01:57:36;;;;;;;0.50;0.50;;;;;;;4.64;75.80;97235.47;29395;233;63009;-62
2022/02/24 01:58:08;;;;;;;0.50;0.50;;;;;;;4.63;76.25;97231.16;29395;234;63005;-59
2022/02/24 01:58:40;;;;;;;0.50;0.50;;;;;;;4.61;76.04;97228.69;29395;234;63027;-58
2022/02/24 01:59:11;;;;;;;0.50;0.50;;;;;;;4.60;76.18;97224.38;29394;232;64009;-59
2022/02/24 01:59:42;;;;;;;0.50;0.50;;;;;;;4.59;76.07;97222.75;29395;228;63009;-57
2022/02/24 02:00:14;;;;;;;0.57;0.57;;;;;;;4.60;76.26;97228.94;29395;202;63004;-62
2022/02/24 02:00:46;;;;;;;0.60;0.60;;;;;;;4.59;76.34;97222.75;29395;209;63009;-58
2022/02/24 02:01:19;;;;;;;0.50;0.50;;;;;;;4.57;76.24;97219.50;29395;223;63004;-62
2022/02/24 02:01:50;;;;;;;0.60;0.60;;;;;;;4.57;76.40;97221.38;29395;304;63009;-63
2022/02/24 02:02:21;;;;;;;0.50;0.50;;;;;;;4.53;76.77;97215.69;29395;218;63005;-58
2022/02/24 02:02:52;;;;;;;0.50;0.50;;;;;;;4.52;76.72;97213.22;29394;216;64014;-58
2022/02/24 02:03:24;;;;;;;0.50;0.50;;;;;;;4.50;76.80;97218.06;29395;234;63005;-62
2022/02/24 02:03:56;;;;;;;0.75;0.75;;;;;;;4.49;76.52;97217.25;29395;227;63009;-59
2022/02/24 02:04:27;;;;;;;0.88;0.88;;;;;;;4.48;76.60;97215.62;29395;226;63005;-62
2022/02/24 02:05:00;;;;;;;0.60;0.60;;;;;;;4.47;77.09;97211.31;29395;251;63009;-62
2022/02/24 02:05:31;;;;;;;0.50;0.50;;;;;;;4.47;77.11;97211.31;29395;212;63005;-58
2022/02/24 02:06:02;;;;;;;0.60;0.60;;;;;;;4.47;76.80;97205.94;29395;221;63009;-62
2022/02/24 02:06:34;;;;;;;0.50;0.50;;;;;;;4.49;77.04;97209.19;29394;215;64009;-62
2022/02/24 02:07:06;;;;;;;0.50;0.50;;;;;;;4.49;76.81;97203.81;29395;197;63009;-61
2022/02/24 02:07:37;;;;;;;0.50;0.50;;;;;;;4.49;76.81;97205.69;29395;215;63004;-59
2022/02/24 02:08:10;;;;;;;0.50;0.50;;;;;;;4.48;77.02;97207.56;29394;231;64005;-61
2022/02/24 02:08:44;;;;;;;0.57;0.57;;;;;;;4.46;77.25;97201.63;29395;206;63004;-59
2022/02/24 02:09:18;;;;;;;0.55;0.55;;;;;;;4.46;76.99;97212.37;29395;227;63015;-58
2022/02/24 02:09:50;;;;;;;0.52;0.52;;;;;;;4.45;77.44;97202.69;29395;220;63005;-63
2022/02/24 02:10:21;;;;;;;0.50;0.50;;;;;;;4.44;77.29;97201.06;29395;223;63009;-63
2022/02/24 02:10:53;;;;;;;0.57;0.57;;;;;;;4.45;77.08;97208.06;29395;213;63005;-62
2022/02/24 02:11:24;;;;;;;0.60;0.60;;;;;;;4.47;77.38;97207.81;29395;218;63009;-63
2022/02/24 02:11:55;;;;;;;0.60;0.60;;;;;;;4.47;77.09;97203.25;29395;197;63005;-62
2022/02/24 02:12:27;;;;;;;0.52;0.52;;;;;;;4.46;76.96;97204.31;29395;239;63009;-63
2022/02/24 02:12:58;;;;;;;0.50;0.50;;;;;;;4.46;76.84;97200.81;29394;295;64009;-62
2022/02/24 02:13:36;;;;;;;0.50;0.50;;;;;;;4.53;76.85;97201.44;29395;206;63009;-63
2022/02/24 02:14:11;;;;;;;0.50;0.50;;;;;;;4.53;76.98;97196.87;29395;208;63004;-62
2022/02/24 02:14:43;;;;;;;0.60;0.60;;;;;;;4.53;77.05;97202.25;29395;215;63009;-59
2022/02/24 02:15:15;;;;;;;0.60;0.60;;;;;;;4.54;76.73;97209.25;29395;218;63004;-63
2022/02/24 02:15:46;;;;;;;0.60;0.60;;;;;;;4.52;77.01;97208.69;29394;198;64027;-62
2022/02/24 02:16:19;;;;;;;0.60;0.60;;;;;;;4.53;76.99;97207.62;29395;291;63004;-58
2022/02/24 02:16:51;;;;;;;0.60;0.60;;;;;;;4.52;76.75;97200.62;29395;197;63019;-62
2022/02/24 02:17:23;;;;;;;0.60;0.60;;;;;;;4.52;76.68;97203.31;29395;305;63005;-58
2022/02/24 02:17:54;;;;;;;0.60;0.60;;;;;;;4.52;76.78;97200.62;29396;237;63009;-59
2022/02/24 02:18:25;;;;;;;0.50;0.50;;;;;;;4.49;76.64;97197.63;29394;308;64009;-58
2022/02/24 02:18:57;;;;;;;0.60;0.60;;;;;;;4.52;76.83;97205.19;29395;223;63009;-62
2022/02/24 02:19:31;;;;;;;0.50;0.50;;;;;;;4.51;77.18;97196.28;29395;198;63005;-58
2022/02/24 02:20:03;;;;;;;0.52;0.52;;;;;;;4.51;77.04;97199.00;29395;240;63009;-63
2022/02/24 02:20:38;;;;;;;0.60;0.60;;;;;;;4.51;76.92;97193.63;29395;242;63004;-63
2022/02/24 02:21:09;;;;;;;0.60;0.60;;;;;;;4.50;77.06;97192.00;29395;283;63009;-62
2022/02/24 02:21:41;;;;;;;0.60;0.60;;;;;;;4.50;77.13;97194.69;29395;214;63004;-62
2022/02/24 02:22:12;;;;;;;0.50;0.50;;;;;;;4.51;77.18;97193.63;29395;231;63009;-59
2022/02/24 02:22:43;;;;;;;0.50;0.50;;;;;;;4.51;77.36;97193.63;29395;202;63004;-59
2022/02/24 02:23:14;;;;;;;0.60;0.60;;;;;;;4.51;77.34;97190.91;29395;289;63008;-58
2022/02/24 02:23:46;;;;;;;0.55;0.55;;;;;;;4.52;77.35;97195.25;29394;214;64009;-63
2022/02/24 02:24:18;;;;;;;0.50;0.50;;;;;;;4.52;77.32;97189.06;29395;221;63009;-58
2022/02/24 02:25:00;;;;;;;0.60;0.60;;;;;;;4.52;77.20;97184.50;29395;218;63005;-61
2022/02/24 02:25:31;;;;;;;0.60;0.60;;;;;;;4.51;77.05;97185.56;29394;240;64013;-63
2022/02/24 02:26:03;;;;;;;0.50;0.50;;;;;;;4.53;77.25;97186.13;29395;240;63005;-58
2022/02/24 02:26:35;;;;;;;0.50;0.50;;;;;;;4.52;77.39;97187.19;29395;202;63009;-63
2022/02/24 02:27:06;;;;;;;0.50;0.50;;;;;;;4.52;77.46;97184.50;29395;236;63005;-58
2022/02/24 02:27:39;;;;;;;0.52;0.52;;;;;;;4.53;77.08;97190.69;29395;224;63009;-59
2022/02/24 02:28:16;;;;;;;0.50;0.50;;;;;;;4.52;77.22;97183.69;29395;215;63004;-58
2022/02/24 02:28:48;;;;;;;0.60;0.60;;;;;;;4.52;77.44;97189.88;29395;214;63009;-62
2022/02/24 02:29:19;;;;;;;0.60;0.60;;;;;;;4.52;77.25;97183.69;29395;197;63004;-63
2022/02/24 02:29:51;;;;;;;0.50;0.50;;;;;;;4.51;77.48;97182.88;29395;264;63009;-63
2022/02/24 02:30:22;;;;;;;0.50;0.50;;;;;;;4.51;77.71;97182.88;29394;226;64008;-63
2022/02/24 02:30:54;;;;;;;0.50;0.50;;;;;;;4.52;77.47;97183.69;29394;198;64013;-63
2022/02/24 02:31:27;;;;;;;0.50;0.50;;;;;;;4.52;77.47;97178.31;29395;255;63005;-62
2022/02/24 02:31:58;;;;;;;0.50;0.50;;;;;;;4.52;77.60;97176.44;29395;208;63009;-62
2022/02/24 02:32:31;;;;;;;0.50;0.50;;;;;;;4.54;77.37;97182.38;29395;219;63010;-63
2022/02/24 02:33:02;;;;;;;0.50;0.50;;;;;;;4.55;77.36;97181.31;29395;303;63009;-59
2022/02/24 02:33:33;;;;;;;0.50;0.50;;;;;;;4.56;77.31;97174.88;29395;208;63005;-63
2022/02/24 02:34:08;;;;;;;0.50;0.50;;;;;;;4.56;77.00;97179.44;29395;227;63009;-63